createdAt,value
2023-05-19T00:00:59.331Z,71.01
2023-05-19T00:01:59.353Z,71.11
2023-05-19T00:02:59.384Z,71.15
2023-05-19T00:03:59.325Z,71.25
2023-05-19T00:04:59.276Z,70.64
2023-05-19T00:05:59.344Z,70.64
2023-05-19T00:06:59.295Z,70.53
2023-05-19T00:07:59.270Z,70.64
2023-05-19T00:08:59.247Z,71.04
2023-05-19T00:09:59.272Z,71.18
2023-05-19T00:10:59.213Z,71.08
2023-05-19T00:11:59.234Z,71.48
2023-05-19T00:12:59.191Z,72.20
2023-05-19T00:13:59.278Z,72.51
2023-05-19T00:14:59.222Z,72.92
2023-05-19T00:15:59.250Z,72.61
2023-05-19T00:16:59.148Z,72.51
2023-05-19T00:17:59.184Z,72.20
2023-05-19T00:18:59.263Z,72.41
2023-05-19T00:19:59.199Z,72.55
2023-05-19T00:20:59.105Z,72.65
2023-05-19T00:21:59.120Z,72.34
2023-05-19T00:22:59.083Z,72.34
2023-05-19T00:23:59.138Z,71.93
2023-05-19T00:24:59.085Z,72.65
2023-05-19T00:25:59.084Z,73.16
2023-05-19T00:26:59.043Z,72.85
2023-05-19T00:27:59.068Z,72.55
2023-05-19T00:28:59.040Z,73.16
2023-05-19T00:29:59.053Z,72.34
2023-05-19T00:30:59.000Z,71.52
2023-05-19T00:31:59.056Z,68.85
2023-05-19T00:32:59.004Z,67.69
2023-05-19T00:33:58.991Z,68.59
2023-05-19T00:34:58.977Z,68.68
2023-05-19T00:35:58.972Z,68.27
2023-05-19T00:36:58.956Z,68.68
2023-05-19T00:37:58.954Z,69.51
2023-05-19T00:38:58.940Z,70.84
2023-05-19T00:39:58.945Z,70.02
2023-05-19T00:40:58.921Z,71.35
2023-05-19T00:41:58.903Z,70.46
2023-05-19T00:42:58.871Z,70.26
2023-05-19T00:43:58.895Z,70.87
2023-05-19T00:44:58.886Z,72.31
2023-05-19T00:45:58.868Z,73.85
2023-05-19T00:46:58.921Z,74.66
2023-05-19T00:47:58.890Z,75.01
2023-05-19T00:48:58.825Z,75.73
2023-05-19T00:49:58.864Z,75.11
2023-05-19T00:50:58.789Z,75.21
2023-05-19T00:51:58.805Z,75.52
2023-05-19T00:52:58.766Z,75.62
2023-05-19T00:53:58.791Z,75.56
2023-05-19T00:54:58.761Z,75.87
2023-05-19T00:55:58.768Z,76.07
2023-05-19T00:56:58.735Z,76.17
2023-05-19T00:57:58.769Z,75.97
2023-05-19T00:58:58.718Z,76.21
2023-05-19T00:59:58.737Z,76.10
2023-05-19T01:00:58.718Z,76.21
2023-05-19T01:01:58.701Z,76.42
2023-05-19T01:02:58.777Z,77.55
2023-05-19T01:03:58.935Z,77.23
2023-05-19T01:04:58.659Z,77.13
2023-05-19T01:05:58.659Z,77.03
2023-05-19T01:06:58.621Z,77.13
2023-05-19T01:07:58.639Z,76.93
2023-05-19T01:08:58.619Z,77.89
2023-05-19T01:09:58.629Z,78.09
2023-05-19T01:10:58.586Z,78.09
2023-05-19T01:11:58.592Z,77.89
2023-05-19T01:12:58.575Z,77.99
2023-05-19T01:13:58.578Z,77.92
2023-05-19T01:14:58.563Z,77.72
2023-05-19T01:15:58.567Z,77.92
2023-05-19T01:16:58.574Z,77.82
2023-05-19T01:17:58.550Z,77.92
2023-05-19T01:18:58.525Z,78.13
2023-05-19T01:19:58.527Z,78.37
2023-05-19T01:20:58.494Z,79.09
2023-05-19T01:21:58.501Z,79.61
2023-05-19T01:22:58.458Z,79.91
2023-05-19T01:23:58.463Z,80.57
2023-05-19T01:24:58.441Z,80.67
2023-05-19T01:25:58.457Z,80.67
2023-05-19T01:26:58.409Z,80.57
2023-05-19T01:27:58.428Z,80.88
2023-05-19T01:28:58.392Z,80.67
2023-05-19T01:29:58.402Z,80.77
2023-05-19T01:30:58.400Z,80.67
2023-05-19T01:31:58.464Z,80.88
2023-05-19T01:32:58.402Z,80.88
2023-05-19T01:33:58.375Z,80.77
2023-05-19T01:34:58.336Z,80.77
2023-05-19T01:35:58.341Z,80.98
2023-05-19T01:36:58.336Z,81.23
2023-05-19T01:37:58.360Z,81.53
2023-05-19T01:38:58.293Z,81.74
2023-05-19T01:39:58.311Z,82.15
2023-05-19T01:40:58.282Z,82.35
2023-05-19T01:41:58.314Z,82.29
2023-05-19T01:42:58.271Z,82.70
2023-05-19T01:43:58.310Z,82.91
2023-05-19T01:44:58.239Z,83.12
2023-05-19T01:45:58.271Z,83.12
2023-05-19T01:46:58.222Z,83.05
2023-05-19T01:47:58.353Z,83.36
2023-05-19T01:48:58.184Z,83.15
2023-05-19T01:49:58.210Z,83.36
2023-05-19T01:50:58.176Z,83.15
2023-05-19T01:51:58.194Z,83.05
2023-05-19T01:52:58.144Z,83.26
2023-05-19T01:53:58.172Z,83.36
2023-05-19T01:54:58.127Z,83.47
2023-05-19T01:55:58.134Z,83.67
2023-05-19T01:56:58.127Z,83.67
2023-05-19T01:57:58.127Z,83.98
2023-05-19T01:58:58.085Z,84.19
2023-05-19T01:59:58.100Z,84.29
2023-05-19T02:00:58.088Z,84.19
2023-05-19T02:01:58.092Z,83.67
2023-05-19T02:02:58.109Z,83.67
2023-05-19T02:03:58.071Z,84.19
2023-05-19T02:04:58.037Z,84.33
2023-05-19T02:05:58.034Z,84.12
2023-05-19T02:06:58.006Z,84.22
2023-05-19T02:07:58.027Z,84.43
2023-05-19T02:08:57.984Z,84.64
2023-05-19T02:09:57.986Z,84.74
2023-05-19T02:10:57.958Z,85.05
2023-05-19T02:11:57.970Z,85.09
2023-05-19T02:12:57.977Z,85.39
2023-05-19T02:13:57.956Z,85.81
2023-05-19T02:14:57.914Z,86.02
2023-05-19T02:15:57.971Z,85.91
2023-05-19T02:16:57.888Z,86.57
2023-05-19T02:17:57.920Z,86.94
2023-05-19T02:18:57.936Z,86.78
2023-05-19T02:19:57.881Z,86.78
2023-05-19T02:20:57.851Z,86.68
2023-05-19T02:21:57.872Z,87.08
2023-05-19T02:22:57.832Z,87.08
2023-05-19T02:23:57.864Z,87.19
2023-05-19T02:24:57.811Z,87.50
2023-05-19T02:25:57.817Z,86.98
2023-05-19T02:26:57.807Z,87.08
2023-05-19T02:27:57.811Z,87.19
2023-05-19T02:28:57.803Z,87.50
2023-05-19T02:29:57.801Z,86.88
2023-05-19T02:30:57.754Z,87.08
2023-05-19T02:31:57.775Z,87.19
2023-05-19T02:32:57.752Z,87.40
2023-05-19T02:33:57.753Z,87.29
2023-05-19T02:34:57.705Z,86.78
2023-05-19T02:35:57.739Z,86.68
2023-05-19T02:36:57.748Z,86.68
2023-05-19T02:37:57.699Z,86.68
2023-05-19T02:38:57.687Z,86.78
2023-05-19T02:39:57.721Z,86.88
2023-05-19T02:40:57.641Z,86.88
2023-05-19T02:41:57.656Z,87.40
2023-05-19T02:42:57.671Z,87.29
2023-05-19T02:43:57.705Z,86.78
2023-05-19T02:44:57.614Z,87.08
2023-05-19T02:45:57.660Z,87.19
2023-05-19T02:46:57.612Z,87.19
2023-05-19T02:47:57.643Z,87.44
2023-05-19T02:48:57.583Z,87.65
2023-05-19T02:49:57.583Z,87.95
2023-05-19T02:50:57.542Z,87.95
2023-05-19T02:51:57.568Z,88.06
2023-05-19T02:52:57.513Z,88.16
2023-05-19T02:53:57.556Z,88.31
2023-05-19T02:54:57.488Z,87.99
2023-05-19T02:55:57.508Z,88.61
2023-05-19T02:56:57.484Z,88.61
2023-05-19T02:57:57.483Z,88.51
2023-05-19T02:58:57.470Z,88.82
2023-05-19T02:59:57.459Z,88.82
2023-05-19T03:00:57.428Z,89.03
2023-05-19T03:01:57.496Z,89.13
2023-05-19T03:02:57.504Z,89.65
2023-05-19T03:03:57.451Z,89.44
2023-05-19T03:04:57.390Z,89.69
2023-05-19T03:05:57.399Z,89.89
2023-05-19T03:06:57.384Z,89.89
2023-05-19T03:07:57.396Z,89.89
2023-05-19T03:08:57.357Z,90.20
2023-05-19T03:09:57.364Z,90.41
2023-05-19T03:10:57.323Z,90.35
2023-05-19T03:11:57.343Z,90.45
2023-05-19T03:12:57.305Z,90.66
2023-05-19T03:13:57.327Z,90.56
2023-05-19T03:14:57.285Z,90.45
2023-05-19T03:15:57.342Z,90.87
2023-05-19T03:16:57.366Z,90.87
2023-05-19T03:17:57.399Z,90.45
2023-05-19T03:18:57.377Z,90.45
2023-05-19T03:19:57.266Z,90.25
2023-05-19T03:20:57.218Z,90.25
2023-05-19T03:21:57.232Z,90.35
2023-05-19T03:22:57.208Z,90.56
2023-05-19T03:23:57.221Z,90.35
2023-05-19T03:24:57.220Z,90.45
2023-05-19T03:25:57.162Z,90.45
2023-05-19T03:26:57.186Z,90.56
2023-05-19T03:27:57.148Z,90.56
2023-05-19T03:28:57.181Z,90.56
2023-05-19T03:29:57.135Z,90.60
2023-05-19T03:30:57.161Z,91.01
2023-05-19T03:31:57.107Z,91.11
2023-05-19T03:32:57.264Z,91.32
2023-05-19T03:33:57.096Z,91.53
2023-05-19T03:34:57.112Z,91.42
2023-05-19T03:35:57.094Z,91.42
2023-05-19T03:36:57.104Z,91.11
2023-05-19T03:37:57.038Z,91.22
2023-05-19T03:38:57.052Z,91.53
2023-05-19T03:39:57.014Z,91.42
2023-05-19T03:40:57.027Z,91.32
2023-05-19T03:41:56.994Z,91.22
2023-05-19T03:42:57.016Z,91.32
2023-05-19T03:43:56.967Z,91.11
2023-05-19T03:44:56.978Z,91.11
2023-05-19T03:45:56.955Z,91.11
2023-05-19T03:46:56.970Z,90.80
2023-05-19T03:47:56.956Z,91.01
2023-05-19T03:48:56.959Z,90.91
2023-05-19T03:49:56.942Z,91.01
2023-05-19T03:50:56.932Z,91.11
2023-05-19T03:51:56.881Z,90.39
2023-05-19T03:52:56.904Z,90.29
2023-05-19T03:53:56.856Z,90.50
2023-05-19T03:54:56.896Z,90.70
2023-05-19T03:56:02.901Z,90.50
2023-05-19T03:56:56.859Z,90.70
2023-05-19T03:57:56.818Z,90.80
2023-05-19T03:58:58.497Z,90.80
2023-05-19T03:59:56.799Z,90.91
2023-05-19T04:00:57.322Z,91.32
2023-05-19T04:01:56.816Z,91.63
2023-05-19T04:02:56.914Z,91.53
2023-05-19T04:03:56.783Z,91.32
2023-05-19T04:04:56.837Z,91.32
2023-05-19T04:05:56.728Z,91.22
2023-05-19T04:06:56.794Z,90.80
2023-05-19T04:07:56.712Z,90.50
2023-05-19T04:08:56.729Z,90.70
2023-05-19T04:09:56.684Z,90.70
2023-05-19T04:10:56.692Z,90.77
2023-05-19T04:11:56.662Z,90.66
2023-05-19T04:12:56.708Z,90.25
2023-05-19T04:13:56.660Z,90.04
2023-05-19T04:14:56.669Z,89.94
2023-05-19T04:15:56.655Z,90.04
2023-05-19T04:16:56.634Z,89.94
2023-05-19T04:17:56.664Z,89.42
2023-05-19T04:18:56.669Z,89.94
2023-05-19T04:19:56.580Z,90.14
2023-05-19T04:20:56.594Z,90.35
2023-05-19T04:21:56.552Z,90.14
2023-05-19T04:22:56.581Z,90.25
2023-05-19T04:23:56.529Z,90.25
2023-05-19T04:24:56.568Z,90.14
2023-05-19T04:25:56.516Z,90.25
2023-05-19T04:26:56.533Z,90.04
2023-05-19T04:27:56.492Z,90.14
2023-05-19T04:28:56.514Z,90.35
2023-05-19T04:29:56.521Z,90.60
2023-05-19T04:30:56.548Z,90.70
2023-05-19T04:31:56.454Z,90.91
2023-05-19T04:32:56.516Z,90.70
2023-05-19T04:33:56.456Z,90.50
2023-05-19T04:34:56.450Z,90.60
2023-05-19T04:35:56.406Z,90.60
2023-05-19T04:36:56.454Z,90.80
2023-05-19T04:37:56.390Z,91.11
2023-05-19T04:38:56.408Z,91.22
2023-05-19T04:39:56.392Z,91.42
2023-05-19T04:40:56.391Z,91.53
2023-05-19T04:41:56.342Z,91.32
2023-05-19T04:42:56.393Z,91.22
2023-05-19T04:43:56.323Z,91.47
2023-05-19T04:44:56.342Z,91.32
2023-05-19T04:45:56.312Z,91.42
2023-05-19T04:46:56.348Z,91.32
2023-05-19T04:47:56.314Z,91.11
2023-05-19T04:48:56.326Z,91.01
2023-05-19T04:49:56.269Z,90.80
2023-05-19T04:50:56.278Z,90.77
2023-05-19T04:51:56.243Z,90.66
2023-05-19T04:52:56.271Z,90.35
2023-05-19T04:53:56.229Z,89.69
2023-05-19T04:54:56.269Z,88.47
2023-05-19T04:55:56.210Z,87.40
2023-05-19T04:56:56.216Z,86.53
2023-05-19T04:57:56.190Z,85.15
2023-05-19T04:58:56.197Z,84.64
2023-05-19T04:59:56.164Z,84.29
2023-05-19T05:00:56.236Z,83.01
2023-05-19T05:01:56.230Z,82.50
2023-05-19T05:02:56.298Z,81.95
2023-05-19T05:03:56.177Z,81.53
2023-05-19T05:04:56.137Z,80.77
2023-05-19T05:05:56.094Z,80.57
2023-05-19T05:06:56.146Z,80.02
2023-05-19T05:07:56.070Z,80.02
2023-05-19T05:08:56.085Z,79.36
2023-05-19T05:09:56.050Z,79.26
2023-05-19T05:10:56.061Z,79.36
2023-05-19T05:11:56.025Z,79.22
2023-05-19T05:12:56.081Z,78.71
2023-05-19T05:13:56.023Z,78.47
2023-05-19T05:14:56.017Z,78.16
2023-05-19T05:15:56.018Z,78.16
2023-05-19T05:16:56.006Z,78.27
2023-05-19T05:17:55.996Z,77.92
2023-05-19T05:18:56.162Z,77.40
2023-05-19T05:19:55.946Z,77.06
2023-05-19T05:20:55.978Z,76.75
2023-05-19T05:21:55.921Z,76.75
2023-05-19T05:22:55.935Z,76.65
2023-05-19T05:23:55.905Z,76.55
2023-05-19T05:24:55.983Z,75.90
2023-05-19T05:25:55.900Z,75.59
2023-05-19T05:26:55.891Z,75.24
2023-05-19T05:27:55.859Z,75.15
2023-05-19T05:28:55.874Z,74.63
2023-05-19T05:29:58.624Z,74.70
2023-05-19T05:30:55.875Z,74.39
2023-05-19T05:31:55.865Z,73.98
2023-05-19T05:32:55.956Z,73.57
2023-05-19T05:33:55.789Z,73.44
2023-05-19T05:34:55.809Z,73.44
2023-05-19T05:35:55.770Z,73.85
2023-05-19T05:36:55.797Z,73.44
2023-05-19T05:37:55.756Z,73.23
2023-05-19T05:38:55.761Z,72.48
2023-05-19T05:39:55.732Z,72.17
2023-05-19T05:40:55.743Z,72.58
2023-05-19T05:41:55.707Z,72.38
2023-05-19T05:42:55.752Z,72.38
2023-05-19T05:43:55.690Z,71.94
2023-05-19T05:44:55.716Z,71.70
2023-05-19T05:45:55.737Z,71.49
2023-05-19T05:46:55.683Z,70.34
2023-05-19T05:47:55.700Z,70.37
2023-05-19T05:48:55.690Z,69.62
2023-05-19T05:49:55.643Z,69.82
2023-05-19T05:50:55.650Z,69.62
2023-05-19T05:52:05.758Z,68.77
2023-05-19T05:52:55.622Z,69.62
2023-05-19T05:53:55.592Z,69.42
2023-05-19T05:54:55.637Z,68.70
2023-05-19T05:55:55.634Z,69.07
2023-05-19T05:56:55.660Z,68.57
2023-05-19T05:57:55.548Z,67.71
2023-05-19T05:58:55.564Z,68.05
2023-05-19T05:59:55.522Z,68.16
2023-05-19T06:00:55.565Z,67.92
2023-05-19T06:01:55.546Z,67.21
2023-05-19T06:02:55.601Z,67.41
2023-05-19T06:03:55.500Z,67.68
2023-05-19T06:04:55.524Z,67.48
2023-05-19T06:05:55.601Z,67.35
2023-05-19T06:06:55.590Z,66.63
2023-05-19T06:07:55.442Z,67.07
2023-05-19T06:08:55.452Z,66.86
2023-05-19T06:09:55.438Z,66.97
2023-05-19T06:10:55.439Z,67.04
2023-05-19T06:11:55.402Z,66.83
2023-05-19T06:12:55.439Z,66.63
2023-05-19T06:13:55.386Z,66.70
2023-05-19T06:14:55.394Z,66.39
2023-05-19T06:15:55.412Z,65.68
2023-05-19T06:16:55.371Z,65.58
2023-05-19T06:17:55.353Z,65.25
2023-05-19T06:18:55.404Z,65.04
2023-05-19T06:19:55.308Z,64.20
2023-05-19T06:20:55.332Z,63.65
2023-05-19T06:21:55.294Z,63.76
2023-05-19T06:22:55.311Z,63.32
2023-05-19T06:23:55.276Z,63.01
2023-05-19T06:24:55.300Z,63.12
2023-05-19T06:25:55.257Z,63.32
2023-05-19T06:26:55.272Z,62.81
2023-05-19T06:27:55.240Z,62.81
2023-05-19T06:28:55.241Z,62.78
2023-05-19T06:29:55.221Z,62.85
2023-05-19T06:30:55.353Z,63.16
2023-05-19T06:31:55.195Z,61.94
2023-05-19T06:32:55.258Z,61.83
2023-05-19T06:33:55.172Z,62.55
2023-05-19T06:34:55.189Z,61.63
2023-05-19T06:35:55.147Z,61.91
2023-05-19T06:36:55.155Z,60.99
2023-05-19T06:37:55.125Z,61.60
2023-05-19T06:38:55.160Z,60.97
2023-05-19T06:39:55.139Z,60.94
2023-05-19T06:40:55.122Z,60.63
2023-05-19T06:41:55.078Z,60.60
2023-05-19T06:42:55.098Z,59.99
2023-05-19T06:43:55.054Z,59.08
2023-05-19T06:44:55.095Z,58.65
2023-05-19T06:45:55.040Z,58.14
2023-05-19T06:46:55.080Z,59.56
2023-05-19T06:47:55.077Z,59.56
2023-05-19T06:48:55.036Z,56.21
2023-05-19T06:49:55.717Z,56.82
2023-05-19T06:50:55.014Z,56.41
2023-05-19T06:51:54.980Z,58.31
2023-05-19T06:52:54.983Z,58.31
2023-05-19T06:53:54.950Z,58.18
2023-05-19T06:54:54.966Z,56.23
2023-05-19T06:55:59.821Z,54.00
2023-05-19T06:56:54.943Z,53.70
2023-05-19T06:57:54.909Z,54.00
2023-05-19T06:58:54.918Z,52.36
2023-05-19T06:59:54.897Z,51.55
2023-05-19T07:00:54.894Z,52.18
2023-05-19T07:01:54.890Z,52.97
2023-05-19T07:02:54.922Z,52.54
2023-05-19T07:03:54.930Z,51.30
2023-05-19T07:04:54.878Z,49.25
2023-05-19T07:05:54.823Z,48.28
2023-05-19T07:06:54.833Z,49.42
2023-05-19T07:07:54.805Z,50.94
2023-05-19T07:08:54.810Z,49.70
2023-05-19T07:09:54.781Z,49.58
2023-05-19T07:10:54.811Z,49.60
2023-05-19T07:11:54.759Z,50.21
2023-05-19T07:12:54.768Z,50.43
2023-05-19T07:13:54.745Z,50.41
2023-05-19T07:14:54.751Z,49.66
2023-05-19T07:15:54.766Z,48.95
2023-05-19T07:16:54.862Z,49.45
2023-05-19T07:17:54.741Z,49.45
2023-05-19T07:18:54.726Z,48.93
2023-05-19T07:19:54.681Z,48.24
2023-05-19T07:20:54.742Z,49.17
2023-05-19T07:21:54.674Z,49.88
2023-05-19T07:22:54.670Z,49.50
2023-05-19T07:23:54.650Z,49.68
2023-05-19T07:24:54.651Z,49.07
2023-05-19T07:25:54.630Z,49.38
2023-05-19T07:26:54.634Z,48.77
2023-05-19T07:27:54.598Z,49.45
2023-05-19T07:28:54.605Z,48.77
2023-05-19T07:29:54.575Z,50.21
2023-05-19T07:30:54.609Z,49.73
2023-05-19T07:31:54.622Z,50.43
2023-05-19T07:32:54.580Z,50.63
2023-05-19T07:33:54.904Z,50.13
2023-05-19T07:34:54.547Z,49.80
2023-05-19T07:35:54.531Z,49.86
2023-05-19T07:36:54.530Z,48.82
2023-05-19T07:37:54.525Z,47.99
2023-05-19T07:38:54.539Z,48.52
2023-05-19T07:39:54.505Z,48.85
2023-05-19T07:40:54.481Z,49.35
2023-05-19T07:41:54.480Z,49.48
2023-05-19T07:42:54.447Z,49.38
2023-05-19T07:43:54.462Z,49.58
2023-05-19T07:44:54.420Z,49.17
2023-05-19T07:45:54.491Z,48.85
2023-05-19T07:46:54.404Z,48.82
2023-05-19T07:47:54.460Z,48.72
2023-05-19T07:48:54.385Z,48.62
2023-05-19T07:49:54.410Z,48.95
2023-05-19T07:50:54.385Z,48.44
2023-05-19T07:51:54.376Z,49.15
2023-05-19T07:52:54.347Z,48.22
2023-05-19T07:53:54.352Z,47.67
2023-05-19T07:54:54.339Z,47.26
2023-05-19T07:55:55.471Z,47.67
2023-05-19T07:56:54.306Z,48.27
2023-05-19T07:57:54.334Z,46.43
2023-05-19T07:58:54.281Z,46.53
2023-05-19T07:59:54.292Z,46.96
2023-05-19T08:00:54.288Z,46.94
2023-05-19T08:01:54.272Z,46.01
2023-05-19T08:02:54.299Z,46.73
2023-05-19T08:03:54.396Z,46.94
2023-05-19T08:04:54.399Z,47.06
2023-05-19T08:05:54.248Z,47.24
2023-05-19T08:06:54.203Z,46.39
2023-05-19T08:07:54.203Z,45.76
2023-05-19T08:08:54.208Z,44.98
2023-05-19T08:09:54.181Z,46.86
2023-05-19T08:10:54.205Z,47.26
2023-05-19T08:11:54.163Z,46.96
2023-05-19T08:12:54.134Z,47.28
2023-05-19T08:13:54.163Z,47.69
2023-05-19T08:14:54.109Z,47.16
2023-05-19T08:15:54.165Z,46.86
2023-05-19T08:16:54.087Z,46.28
2023-05-19T08:17:54.118Z,47.20
2023-05-19T08:18:54.119Z,47.74
2023-05-19T08:19:54.079Z,47.13
2023-05-19T08:20:54.071Z,47.35
2023-05-19T08:21:54.061Z,48.16
2023-05-19T08:22:54.035Z,48.69
2023-05-19T08:23:54.038Z,48.39
2023-05-19T08:24:54.006Z,48.39
2023-05-19T08:25:54.055Z,48.57
2023-05-19T08:26:53.986Z,48.26
2023-05-19T08:27:53.996Z,48.24
2023-05-19T08:28:53.963Z,48.14
2023-05-19T08:29:53.977Z,47.13
2023-05-19T08:30:53.973Z,47.23
2023-05-19T08:31:54.136Z,47.71
2023-05-19T08:32:53.937Z,46.70
2023-05-19T08:33:53.932Z,46.88
2023-05-19T08:34:53.897Z,46.15
2023-05-19T08:35:53.922Z,45.57
2023-05-19T08:36:53.886Z,46.17
2023-05-19T08:37:53.881Z,46.23
2023-05-19T08:38:53.845Z,45.30
2023-05-19T08:39:53.858Z,43.87
2023-05-19T08:40:53.849Z,44.42
2023-05-19T08:41:53.836Z,45.25
2023-05-19T08:42:53.803Z,45.75
2023-05-19T08:43:53.826Z,46.03
2023-05-19T08:44:53.791Z,45.62
2023-05-19T08:45:53.808Z,45.42
2023-05-19T08:46:53.800Z,45.83
2023-05-19T08:47:53.800Z,45.12
2023-05-19T08:48:53.738Z,45.30
2023-05-19T08:49:53.743Z,44.98
2023-05-19T08:50:53.724Z,43.82
2023-05-19T08:51:53.730Z,43.73
2023-05-19T08:52:53.753Z,43.42
2023-05-19T08:53:53.708Z,44.23
2023-05-19T08:54:53.690Z,42.80
2023-05-19T08:55:53.677Z,42.76
2023-05-19T08:56:53.690Z,41.97
2023-05-19T08:57:53.655Z,41.97
2023-05-19T08:58:53.623Z,42.10
2023-05-19T08:59:53.641Z,42.60
2023-05-19T09:00:53.661Z,43.82
2023-05-19T09:01:53.629Z,43.82
2023-05-19T09:03:00.898Z,42.92
2023-05-19T09:03:53.651Z,43.00
2023-05-19T09:04:53.681Z,43.08
2023-05-19T09:05:53.619Z,43.16
2023-05-19T09:06:53.534Z,42.50
2023-05-19T09:07:53.582Z,42.78
2023-05-19T09:08:53.541Z,41.55
2023-05-19T09:09:53.526Z,42.05
2023-05-19T09:10:53.506Z,41.73
2023-05-19T09:11:53.502Z,42.47
2023-05-19T09:12:53.471Z,42.50
2023-05-19T09:13:53.477Z,42.32
2023-05-19T09:14:53.475Z,42.94
2023-05-19T09:15:53.471Z,42.94
2023-05-19T09:16:53.524Z,43.34
2023-05-19T09:17:53.458Z,42.84
2023-05-19T09:18:53.417Z,43.54
2023-05-19T09:19:53.416Z,43.52
2023-05-19T09:20:53.402Z,42.41
2023-05-19T09:21:53.400Z,42.84
2023-05-19T09:22:53.350Z,43.65
2023-05-19T09:23:53.360Z,41.91
2023-05-19T09:24:53.323Z,42.40
2023-05-19T09:25:53.384Z,41.27
2023-05-19T09:26:53.345Z,40.84
2023-05-19T09:27:53.322Z,41.13
2023-05-19T09:28:53.297Z,41.41
2023-05-19T09:29:53.285Z,39.28
2023-05-19T09:30:53.258Z,37.87
2023-05-19T09:31:53.275Z,39.18
2023-05-19T09:32:53.365Z,39.28
2023-05-19T09:33:53.259Z,40.67
2023-05-19T09:34:53.221Z,40.65
2023-05-19T09:35:53.240Z,39.48
2023-05-19T09:36:53.464Z,39.58
2023-05-19T09:37:53.216Z,40.30
2023-05-19T09:38:53.205Z,39.98
2023-05-19T09:39:53.183Z,39.08
2023-05-19T09:40:53.161Z,39.58
2023-05-19T09:41:53.159Z,38.90
2023-05-19T09:42:53.122Z,38.81
2023-05-19T09:43:53.137Z,39.72
2023-05-19T09:44:53.127Z,39.40
2023-05-19T09:45:53.146Z,39.48
2023-05-19T09:46:53.092Z,38.60
2023-05-19T09:47:53.167Z,37.52
2023-05-19T09:48:53.054Z,38.83
2023-05-19T09:49:53.077Z,38.64
2023-05-19T09:50:53.075Z,39.45
2023-05-19T09:51:53.045Z,39.17
2023-05-19T09:52:53.018Z,39.39
2023-05-19T09:53:53.031Z,39.11
2023-05-19T09:54:53.020Z,39.92
2023-05-19T09:55:53.024Z,40.40
2023-05-19T09:56:53.018Z,39.50
2023-05-19T09:57:53.001Z,39.98
2023-05-19T09:58:52.952Z,39.17
2023-05-19T09:59:52.962Z,39.07
2023-05-19T10:00:52.937Z,39.17
2023-05-19T10:01:53.036Z,39.65
2023-05-19T10:02:53.128Z,39.37
2023-05-19T10:03:53.010Z,39.65
2023-05-19T10:04:52.886Z,39.05
2023-05-19T10:05:52.956Z,39.58
2023-05-19T10:06:52.866Z,39.37
2023-05-19T10:07:52.912Z,39.15
2023-05-19T10:08:52.859Z,38.64
2023-05-19T10:09:52.855Z,37.24
2023-05-19T10:10:52.816Z,38.75
2023-05-19T10:11:52.917Z,37.93
2023-05-19T10:12:52.810Z,38.21
2023-05-19T10:13:52.802Z,37.83
2023-05-19T10:14:52.792Z,38.05
2023-05-19T10:15:58.922Z,39.17
2023-05-19T10:16:52.789Z,39.05
2023-05-19T10:17:52.821Z,38.45
2023-05-19T10:18:52.797Z,38.95
2023-05-19T10:19:52.752Z,38.17
2023-05-19T10:20:52.733Z,39.36
2023-05-19T10:21:52.736Z,38.42
2023-05-19T10:22:52.689Z,37.52
2023-05-19T10:23:52.770Z,38.01
2023-05-19T10:24:52.674Z,37.73
2023-05-19T10:25:52.698Z,38.42
2023-05-19T10:26:52.657Z,37.49
2023-05-19T10:27:52.655Z,37.49
2023-05-19T10:28:52.622Z,37.30
2023-05-19T10:29:52.653Z,37.12
2023-05-19T10:30:52.594Z,36.84
2023-05-19T10:31:52.706Z,36.66
2023-05-19T10:32:52.615Z,37.14
2023-05-19T10:33:52.612Z,37.65
2023-05-19T10:34:52.555Z,37.02
2023-05-19T10:35:52.575Z,37.32
2023-05-19T10:36:52.535Z,37.74
2023-05-19T10:37:52.571Z,37.34
2023-05-19T10:38:52.533Z,37.46
2023-05-19T10:39:52.516Z,37.74
2023-05-19T10:40:52.483Z,37.04
2023-05-19T10:41:52.510Z,36.64
2023-05-19T10:42:52.474Z,36.44
2023-05-19T10:43:52.466Z,37.45
2023-05-19T10:44:52.474Z,36.64
2023-05-19T10:45:52.454Z,37.85
2023-05-19T10:46:54.132Z,36.72
2023-05-19T10:47:52.509Z,37.23
2023-05-19T10:48:52.393Z,36.52
2023-05-19T10:49:52.413Z,36.70
2023-05-19T10:50:52.395Z,37.08
2023-05-19T10:51:52.443Z,36.16
2023-05-19T10:52:52.357Z,35.78
2023-05-19T10:53:52.362Z,36.58
2023-05-19T10:54:52.346Z,36.00
2023-05-19T10:55:52.351Z,36.02
2023-05-19T10:56:52.322Z,36.50
2023-05-19T10:57:52.324Z,36.90
2023-05-19T10:58:52.334Z,36.29
2023-05-19T10:59:52.351Z,36.97
2023-05-19T11:00:52.262Z,35.30
2023-05-19T11:01:52.348Z,35.71
2023-05-19T11:02:52.297Z,37.23
2023-05-19T11:03:52.406Z,37.51
2023-05-19T11:04:52.366Z,35.80
2023-05-19T11:05:52.269Z,36.02
2023-05-19T11:06:52.194Z,36.04
2023-05-19T11:07:52.200Z,37.32
2023-05-19T11:08:52.189Z,35.90
2023-05-19T11:09:52.180Z,36.49
2023-05-19T11:10:52.156Z,35.66
2023-05-19T11:11:52.160Z,35.77
2023-05-19T11:12:52.299Z,36.57
2023-05-19T11:13:52.142Z,34.66
2023-05-19T11:14:52.151Z,35.06
2023-05-19T11:15:52.112Z,35.36
2023-05-19T11:16:52.169Z,35.38
2023-05-19T11:17:52.136Z,34.86
2023-05-19T11:18:52.093Z,34.94
2023-05-19T11:19:52.082Z,33.94
2023-05-19T11:20:52.112Z,35.43
2023-05-19T11:21:52.044Z,33.52
2023-05-19T11:22:52.036Z,33.62
2023-05-19T11:23:52.071Z,34.53
2023-05-19T11:24:52.010Z,35.01
2023-05-19T11:25:52.044Z,34.71
2023-05-19T11:26:52.022Z,34.12
2023-05-19T11:27:51.987Z,33.92
2023-05-19T11:28:51.948Z,33.92
2023-05-19T11:29:52.051Z,34.63
2023-05-19T11:30:52.483Z,34.84
2023-05-19T11:31:52.024Z,34.74
2023-05-19T11:32:51.977Z,34.26
2023-05-19T11:33:51.925Z,34.98
2023-05-19T11:34:51.901Z,34.98
2023-05-19T11:35:51.917Z,35.18
2023-05-19T11:36:51.881Z,34.58
2023-05-19T11:37:51.887Z,34.26
2023-05-19T11:38:51.886Z,34.76
2023-05-19T11:39:51.858Z,34.64
2023-05-19T11:40:51.820Z,34.64
2023-05-19T11:41:51.834Z,33.91
2023-05-19T11:42:51.810Z,33.39
2023-05-19T11:43:51.823Z,33.06
2023-05-19T11:44:51.828Z,33.44
2023-05-19T11:45:51.822Z,33.37
2023-05-19T11:46:51.807Z,34.92
2023-05-19T11:48:02.088Z,35.83
2023-05-19T11:48:51.751Z,35.01
2023-05-19T11:49:51.760Z,34.61
2023-05-19T11:50:51.751Z,35.21
2023-05-19T11:51:51.726Z,34.99
2023-05-19T11:52:51.707Z,34.01
2023-05-19T11:53:51.703Z,35.01
2023-05-19T11:54:51.695Z,35.31
2023-05-19T11:55:51.991Z,34.71
2023-05-19T11:56:51.712Z,35.61
2023-05-19T11:58:02.722Z,34.31
2023-05-19T11:58:51.661Z,34.33
2023-05-19T11:59:51.627Z,33.64
2023-05-19T12:00:51.654Z,34.84
2023-05-19T12:01:51.602Z,34.33
2023-05-19T12:02:51.722Z,36.33
2023-05-19T12:03:51.696Z,33.92
2023-05-19T12:04:51.634Z,35.13
2023-05-19T12:05:51.708Z,35.01
2023-05-19T12:06:51.561Z,34.51
2023-05-19T12:07:51.537Z,34.42
2023-05-19T12:08:51.555Z,34.44
2023-05-19T12:09:51.509Z,34.21
2023-05-19T12:10:51.536Z,33.83
2023-05-19T12:11:51.483Z,33.74
2023-05-19T12:12:51.513Z,34.54
2023-05-19T12:13:51.474Z,34.44
2023-05-19T12:14:51.523Z,34.42
2023-05-19T12:15:51.477Z,34.31
2023-05-19T12:16:51.572Z,34.19
2023-05-19T12:17:51.498Z,34.69
2023-05-19T12:18:51.483Z,34.01
2023-05-19T12:19:51.411Z,34.41
2023-05-19T12:20:51.455Z,34.80
2023-05-19T12:21:51.393Z,34.17
2023-05-19T12:22:51.396Z,34.88
2023-05-19T12:23:51.368Z,34.38
2023-05-19T12:24:51.370Z,32.89
2023-05-19T12:25:51.348Z,33.79
2023-05-19T12:26:51.386Z,33.87
2023-05-19T12:27:51.323Z,32.77
2023-05-19T12:28:51.365Z,33.87
2023-05-19T12:29:51.312Z,33.67
2023-05-19T12:30:51.312Z,34.38
2023-05-19T12:31:51.311Z,34.48
2023-05-19T12:32:51.330Z,33.46
2023-05-19T12:33:51.292Z,33.11
2023-05-19T12:34:51.276Z,34.54
2023-05-19T12:35:51.233Z,34.84
2023-05-19T12:36:51.250Z,33.84
2023-05-19T12:37:51.212Z,33.54
2023-05-19T12:38:51.246Z,33.32
2023-05-19T12:39:51.209Z,33.62
2023-05-19T12:40:51.242Z,34.11
2023-05-19T12:41:51.163Z,33.58
2023-05-19T12:42:51.182Z,32.17
2023-05-19T12:43:51.193Z,33.17
2023-05-19T12:44:51.192Z,32.27
2023-05-19T12:45:51.168Z,33.49
2023-05-19T12:46:51.171Z,32.26
2023-05-19T12:47:51.170Z,31.35
2023-05-19T12:48:51.129Z,32.26
2023-05-19T12:49:51.081Z,31.23
2023-05-19T12:50:51.124Z,31.43
2023-05-19T12:51:51.071Z,30.81
2023-05-19T12:52:51.080Z,31.31